sensor_id;sensor_type;location;lat;lon;timestamp;pressure;altitude;pressure_sealevel;temperature;humidity
60427;BME280;46274;47.168;27.604;2023-01-25T00:03:37;101837.06;;;-0.59;79.71
60427;BME280;46274;47.168;27.604;2023-01-25T00:09:40;101840.59;;;-0.59;79.26
60427;BME280;46274;47.168;27.604;2023-01-25T00:15:42;101829.13;;;-0.61;79.65
60427;BME280;46274;47.168;27.604;2023-01-25T00:21:45;101731.22;;;-1.19;79.71
60427;BME280;46274;47.168;27.604;2023-01-25T00:27:47;101838.28;;;-0.68;80.05
60427;BME280;46274;47.168;27.604;2023-01-25T00:34:05;101836.69;;;-0.72;80.40
60427;BME280;46274;47.168;27.604;2023-01-25T00:40:09;101812.75;;;-0.72;80.50
60427;BME280;46274;47.168;27.604;2023-01-25T00:46:15;101765.75;;;-0.95;80.34
60427;BME280;46274;47.168;27.604;2023-01-25T00:52:18;101824.91;;;-0.45;80.05
60427;BME280;46274;47.168;27.604;2023-01-25T00:58:21;101831.66;;;-0.58;80.53
60427;BME280;46274;47.168;27.604;2023-01-25T01:04:24;101828.75;;;-0.52;81.06
60427;BME280;46274;47.168;27.604;2023-01-25T01:10:27;101787.03;;;-0.73;81.34
60427;BME280;46274;47.168;27.604;2023-01-25T01:16:29;101814.19;;;-0.65;81.84
60427;BME280;46274;47.168;27.604;2023-01-25T01:22:31;101794.47;;;-0.81;82.17
60427;BME280;46274;47.168;27.604;2023-01-25T01:28:35;101809.19;;;-0.73;80.57
60427;BME280;46274;47.168;27.604;2023-01-25T01:34:40;101794.66;;;-0.64;81.13
60427;BME280;46274;47.168;27.604;2023-01-25T01:40:44;101790.63;;;-0.74;80.53
60427;BME280;46274;47.168;27.604;2023-01-25T01:46:54;101702.19;;;-0.81;80.05
60427;BME280;46274;47.168;27.604;2023-01-25T01:52:58;101670.69;;;-0.92;78.41
60427;BME280;46274;47.168;27.604;2023-01-25T01:59:01;101695.50;;;-0.49;78.85
60427;BME280;46274;47.168;27.604;2023-01-25T02:05:09;101771.59;;;-0.65;79.71
60427;BME280;46274;47.168;27.604;2023-01-25T02:11:14;101761.66;;;-0.17;78.45
60427;BME280;46274;47.168;27.604;2023-01-25T02:17:27;101723.66;;;-0.43;79.02
60427;BME280;46274;47.168;27.604;2023-01-25T02:23:44;101748.56;;;-0.24;77.87
60427;BME280;46274;47.168;27.604;2023-01-25T02:29:49;101748.50;;;-0.42;78.23
60427;BME280;46274;47.168;27.604;2023-01-25T02:35:58;101747.16;;;-0.53;77.61
60427;BME280;46274;47.168;27.604;2023-01-25T02:42:01;101616.66;;;-1.36;77.52
60427;BME280;46274;47.168;27.604;2023-01-25T02:48:03;101676.78;;;-1.10;77.25
60427;BME280;46274;47.168;27.604;2023-01-25T02:54:07;101713.75;;;-0.82;77.14
60427;BME280;46274;47.168;27.604;2023-01-25T03:00:10;101738.84;;;-0.88;77.96
60427;BME280;46274;47.168;27.604;2023-01-25T03:06:15;101723.88;;;-0.27;76.64
60427;BME280;46274;47.168;27.604;2023-01-25T03:12:18;101700.28;;;-0.77;76.78
60427;BME280;46274;47.168;27.604;2023-01-25T03:18:20;101718.75;;;-0.32;76.99
60427;BME280;46274;47.168;27.604;2023-01-25T03:24:25;101718.59;;;-0.29;77.00
60427;BME280;46274;47.168;27.604;2023-01-25T03:30:27;101697.75;;;-0.39;76.42
60427;BME280;46274;47.168;27.604;2023-01-25T03:36:30;101663.75;;;-0.74;74.90
60427;BME280;46274;47.168;27.604;2023-01-25T03:42:32;101721.34;;;-0.51;75.53
60427;BME280;46274;47.168;27.604;2023-01-25T03:48:35;101713.34;;;-0.51;74.84
60427;BME280;46274;47.168;27.604;2023-01-25T03:54:37;101702.56;;;-0.48;74.80
60427;BME280;46274;47.168;27.604;2023-01-25T04:00:40;101708.16;;;-0.54;75.13
60427;BME280;46274;47.168;27.604;2023-01-25T04:06:42;101704.94;;;-0.21;74.70
60427;BME280;46274;47.168;27.604;2023-01-25T04:12:45;101706.03;;;-0.05;74.98
60427;BME280;46274;47.168;27.604;2023-01-25T04:18:47;101576.53;;;-0.88;75.00
60427;BME280;46274;47.168;27.604;2023-01-25T04:24:49;101708.56;;;-0.22;75.36
60427;BME280;46274;47.168;27.604;2023-01-25T04:30:53;101713.34;;;-0.10;74.78
60427;BME280;46274;47.168;27.604;2023-01-25T04:36:56;101707.47;;;0.03;74.52
60427;BME280;46274;47.168;27.604;2023-01-25T04:42:59;101713.34;;;-0.10;74.17
60427;BME280;46274;47.168;27.604;2023-01-25T04:49:03;101593.59;;;-0.93;74.24
60427;BME280;46274;47.168;27.604;2023-01-25T04:55:06;101715.53;;;0.01;73.96
60427;BME280;46274;47.168;27.604;2023-01-25T05:01:09;101731.06;;;-0.09;74.55
60427;BME280;46274;47.168;27.604;2023-01-25T05:07:12;101727.47;;;-0.08;74.52
60427;BME280;46274;47.168;27.604;2023-01-25T05:13:17;101604.56;;;-0.80;74.86
60427;BME280;46274;47.168;27.604;2023-01-25T05:19:20;101692.19;;;-0.13;75.05
60427;BME280;46274;47.168;27.604;2023-01-25T05:25:22;101722.94;;;-0.06;74.40
60427;BME280;46274;47.168;27.604;2023-01-25T05:31:58;101651.47;;;-0.78;74.77
60427;BME280;46274;47.168;27.604;2023-01-25T05:38:00;101733.81;;;-0.10;74.92
60427;BME280;46274;47.168;27.604;2023-01-25T05:44:03;101714.88;;;-0.25;75.48
60427;BME280;46274;47.168;27.604;2023-01-25T05:50:06;101740.53;;;-0.02;74.88
60427;BME280;46274;47.168;27.604;2023-01-25T05:56:10;101667.31;;;-0.34;75.14
60427;BME280;46274;47.168;27.604;2023-01-25T06:02:12;101744.22;;;-0.47;75.08
60427;BME280;46274;47.168;27.604;2023-01-25T06:08:15;101738.13;;;-0.28;75.79
60427;BME280;46274;47.168;27.604;2023-01-25T06:14:17;101746.53;;;0.04;75.02
60427;BME280;46274;47.168;27.604;2023-01-25T06:20:19;101730.00;;;-0.05;74.67
60427;BME280;46274;47.168;27.604;2023-01-25T06:26:22;101752.41;;;0.10;74.75
60427;BME280;46274;47.168;27.604;2023-01-25T06:32:30;101727.19;;;-0.02;74.92
60427;BME280;46274;47.168;27.604;2023-01-25T06:38:32;101742.00;;;0.06;75.17
60427;BME280;46274;47.168;27.604;2023-01-25T06:44:37;101747.72;;;-0.24;76.06
60427;BME280;46274;47.168;27.604;2023-01-25T06:50:39;101740.88;;;-0.52;78.06
60427;BME280;46274;47.168;27.604;2023-01-25T06:56:41;101705.16;;;-0.46;76.06
60427;BME280;46274;47.168;27.604;2023-01-25T07:02:43;101748.13;;;-0.33;76.04
60427;BME280;46274;47.168;27.604;2023-01-25T07:08:47;101745.56;;;-0.16;75.49
60427;BME280;46274;47.168;27.604;2023-01-25T07:14:50;101748.75;;;-0.49;75.70
60427;BME280;46274;47.168;27.604;2023-01-25T07:20:52;101717.84;;;-0.73;75.92
60427;BME280;46274;47.168;27.604;2023-01-25T07:26:57;101740.88;;;-0.72;76.03
60427;BME280;46274;47.168;27.604;2023-01-25T07:33:00;101743.28;;;-0.66;76.04
60427;BME280;46274;47.168;27.604;2023-01-25T07:39:02;101739.34;;;-0.57;76.21
60427;BME280;46274;47.168;27.604;2023-01-25T07:45:08;101736.22;;;-0.47;75.51
60427;BME280;46274;47.168;27.604;2023-01-25T07:51:11;101732.72;;;-0.47;76.51
60427;BME280;46274;47.168;27.604;2023-01-25T07:57:19;101729.72;;;-0.39;75.97
60427;BME280;46274;47.168;27.604;2023-01-25T08:03:21;101697.63;;;-0.57;75.55
60427;BME280;46274;47.168;27.604;2023-01-25T08:09:24;101550.13;;;-1.35;75.31
60427;BME280;46274;47.168;27.604;2023-01-25T08:15:26;101709.75;;;-0.50;75.73
60427;BME280;46274;47.168;27.604;2023-01-25T08:21:31;101706.16;;;-0.49;75.64
60427;BME280;46274;47.168;27.604;2023-01-25T08:27:33;101705.84;;;-0.41;75.17
60427;BME280;46274;47.168;27.604;2023-01-25T08:33:36;101550.47;;;-1.22;73.73
60427;BME280;46274;47.168;27.604;2023-01-25T08:39:38;101647.72;;;-0.72;73.59
60427;BME280;46274;47.168;27.604;2023-01-25T08:45:40;101699.84;;;-0.26;73.88
60427;BME280;46274;47.168;27.604;2023-01-25T08:51:42;101697.22;;;-0.48;73.65
60427;BME280;46274;47.168;27.604;2023-01-25T08:57:45;101696.50;;;-0.51;74.68
60427;BME280;46274;47.168;27.604;2023-01-25T09:03:49;101688.09;;;-0.22;73.91
60427;BME280;46274;47.168;27.604;2023-01-25T09:09:52;101683.19;;;-0.31;73.72
60427;BME280;46274;47.168;27.604;2023-01-25T09:15:59;101655.16;;;-0.60;74.47
60427;BME280;46274;47.168;27.604;2023-01-25T09:22:02;101670.31;;;-0.41;74.16
60427;BME280;46274;47.168;27.604;2023-01-25T09:28:04;101575.38;;;-0.82;73.59
60427;BME280;46274;47.168;27.604;2023-01-25T09:34:14;101656.28;;;-0.45;73.17
60427;BME280;46274;47.168;27.604;2023-01-25T09:40:20;101628.66;;;-0.63;72.80
60427;BME280;46274;47.168;27.604;2023-01-25T09:46:43;101577.84;;;-0.77;72.64
60427;BME280;46274;47.168;27.604;2023-01-25T09:53:05;101642.25;;;-0.28;72.70
60427;BME280;46274;47.168;27.604;2023-01-25T09:59:14;101608.84;;;-0.56;72.95
60427;BME280;46274;47.168;27.604;2023-01-25T10:05:27;101633.94;;;-0.41;72.08
60427;BME280;46274;47.168;27.604;2023-01-25T10:11:31;101483.41;;;-1.08;72.59
60427;BME280;46274;47.168;27.604;2023-01-25T10:17:39;101620.69;;;-0.42;72.39
60427;BME280;46274;47.168;27.604;2023-01-25T10:37:18;101570.22;;;-0.46;72.08
60427;BME280;46274;47.168;27.604;2023-01-25T10:56:58;101572.47;;;-0.36;72.95
60427;BME280;46274;47.168;27.604;2023-01-25T11:03:18;101570.53;;;-0.33;72.65
60427;BME280;46274;47.168;27.604;2023-01-25T11:09:29;101494.94;;;-0.89;72.94
60427;BME280;46274;47.168;27.604;2023-01-25T11:15:32;101513.69;;;-0.71;72.58
60427;BME280;46274;47.168;27.604;2023-01-25T11:21:35;101429.78;;;-0.99;72.80
60427;BME280;46274;47.168;27.604;2023-01-25T11:27:39;101536.13;;;-0.37;73.81
60427;BME280;46274;47.168;27.604;2023-01-25T11:33:43;101504.50;;;-0.45;71.71
60427;BME280;46274;47.168;27.604;2023-01-25T11:40:17;101530.75;;;-0.17;72.00
60427;BME280;46274;47.168;27.604;2023-01-25T12:31:18;101364.34;;;-1.03;72.13
60427;BME280;46274;47.168;27.604;2023-01-25T12:37:28;101503.09;;;-0.14;71.15
60427;BME280;46274;47.168;27.604;2023-01-25T12:43:57;101494.25;;;-0.15;71.26
60427;BME280;46274;47.168;27.604;2023-01-25T12:50:21;101495.63;;;-0.25;71.66
60427;BME280;46274;47.168;27.604;2023-01-25T13:09:18;101464.38;;;-0.40;72.14
60427;BME280;46274;47.168;27.604;2023-01-25T13:15:42;101431.84;;;-0.66;72.10
60427;BME280;46274;47.168;27.604;2023-01-25T13:21:50;101423.28;;;-0.54;71.68
60427;BME280;46274;47.168;27.604;2023-01-25T13:28:59;101355.72;;;-0.89;71.68
60427;BME280;46274;47.168;27.604;2023-01-25T13:34:54;101463.22;;;-0.35;72.17
60427;BME280;46274;47.168;27.604;2023-01-25T13:41:23;101430.41;;;-0.35;71.28
60427;BME280;46274;47.168;27.604;2023-01-25T13:47:32;101451.84;;;-0.38;71.62
60427;BME280;46274;47.168;27.604;2023-01-25T13:53:53;101360.91;;;-1.05;72.26
60427;BME280;46274;47.168;27.604;2023-01-25T14:00:14;101382.94;;;-0.82;71.65
60427;BME280;46274;47.168;27.604;2023-01-25T14:06:33;101443.78;;;-0.56;71.38
60427;BME280;46274;47.168;27.604;2023-01-25T14:12:41;101416.56;;;-0.81;71.72
60427;BME280;46274;47.168;27.604;2023-01-25T14:18:52;101401.75;;;-0.68;72.24
60427;BME280;46274;47.168;27.604;2023-01-25T14:25:15;101430.19;;;-0.69;72.68
60427;BME280;46274;47.168;27.604;2023-01-25T14:31:33;101428.16;;;-0.82;73.75
60427;BME280;46274;47.168;27.604;2023-01-25T14:37:43;101359.34;;;-1.29;74.15
60427;BME280;46274;47.168;27.604;2023-01-25T14:50:42;101412.25;;;-0.84;72.10
60427;BME280;46274;47.168;27.604;2023-01-25T14:56:47;101367.31;;;-0.90;71.96
60427;BME280;46274;47.168;27.604;2023-01-25T15:02:56;101407.47;;;-0.96;73.62
60427;BME280;46274;47.168;27.604;2023-01-25T15:08:59;101207.53;;;-2.21;72.89
60427;BME280;46274;47.168;27.604;2023-01-25T15:15:17;101405.16;;;-1.04;73.97
60427;BME280;46274;47.168;27.604;2023-01-25T15:21:26;101413.59;;;-0.94;73.65
60427;BME280;46274;47.168;27.604;2023-01-25T15:27:29;101398.50;;;-0.94;73.08
60427;BME280;46274;47.168;27.604;2023-01-25T15:33:33;101406.06;;;-0.84;73.45
60427;BME280;46274;47.168;27.604;2023-01-25T15:39:36;101412.41;;;-0.68;72.92
60427;BME280;46274;47.168;27.604;2023-01-25T15:45:49;101393.56;;;-0.82;72.23
60427;BME280;46274;47.168;27.604;2023-01-25T15:51:54;101383.84;;;-0.83;72.13
60427;BME280;46274;47.168;27.604;2023-01-25T15:58:03;101403.91;;;-0.95;72.94
60427;BME280;46274;47.168;27.604;2023-01-25T16:04:08;101401.75;;;-0.68;72.35
60427;BME280;46274;47.168;27.604;2023-01-25T16:10:24;101403.03;;;-0.96;72.99
60427;BME280;46274;47.168;27.604;2023-01-25T16:16:26;101410.34;;;-1.01;72.90
60427;BME280;46274;47.168;27.604;2023-01-25T16:22:32;101404.31;;;-1.04;72.88
60427;BME280;46274;47.168;27.604;2023-01-25T16:28:35;101379.41;;;-1.22;73.03
60427;BME280;46274;47.168;27.604;2023-01-25T16:34:37;101211.75;;;-2.17;73.17
60427;BME280;46274;47.168;27.604;2023-01-25T16:40:40;101343.41;;;-1.50;73.25
60427;BME280;46274;47.168;27.604;2023-01-25T16:46:42;101387.59;;;-0.88;72.49
60427;BME280;46274;47.168;27.604;2023-01-25T16:52:45;101382.19;;;-0.86;72.65
60427;BME280;46274;47.168;27.604;2023-01-25T16:58:59;101388.56;;;-1.09;72.01
60427;BME280;46274;47.168;27.604;2023-01-25T17:05:04;101353.06;;;-1.08;72.49
60427;BME280;46274;47.168;27.604;2023-01-25T17:11:07;101189.50;;;-1.94;72.48
60427;BME280;46274;47.168;27.604;2023-01-25T17:17:10;101377.00;;;-1.08;72.90
60427;BME280;46274;47.168;27.604;2023-01-25T17:23:15;101363.56;;;-1.05;73.44
60427;BME280;46274;47.168;27.604;2023-01-25T17:29:23;101364.56;;;-1.07;73.50
60427;BME280;46274;47.168;27.604;2023-01-25T17:35:26;101347.34;;;-1.19;73.59
60427;BME280;46274;47.168;27.604;2023-01-25T17:41:29;101362.31;;;-0.60;71.84
60427;BME280;46274;47.168;27.604;2023-01-25T17:47:37;101355.03;;;-0.93;72.52
60427;BME280;46274;47.168;27.604;2023-01-25T17:53:39;101344.56;;;-0.78;72.31
60427;BME280;46274;47.168;27.604;2023-01-25T17:59:44;101308.50;;;-1.03;72.57
60427;BME280;46274;47.168;27.604;2023-01-25T18:05:46;101318.91;;;-1.17;72.87
60427;BME280;46274;47.168;27.604;2023-01-25T18:11:55;101336.16;;;-1.07;72.92
60427;BME280;46274;47.168;27.604;2023-01-25T18:17:58;101261.41;;;-1.39;72.69
60427;BME280;46274;47.168;27.604;2023-01-25T18:24:20;101290.00;;;-1.25;72.85
60427;BME280;46274;47.168;27.604;2023-01-25T18:36:33;101329.41;;;-0.95;73.28
60427;BME280;46274;47.168;27.604;2023-01-25T18:42:36;101324.41;;;-1.22;74.38
60427;BME280;46274;47.168;27.604;2023-01-25T18:48:46;101328.97;;;-1.05;74.42
60427;BME280;46274;47.168;27.604;2023-01-25T18:54:48;101328.31;;;-1.10;74.58
60427;BME280;46274;47.168;27.604;2023-01-25T19:01:00;101321.66;;;-1.00;74.35
60427;BME280;46274;47.168;27.604;2023-01-25T19:07:03;101313.94;;;-1.06;74.59
60427;BME280;46274;47.168;27.604;2023-01-25T19:13:08;101244.69;;;-1.61;75.17
60427;BME280;46274;47.168;27.604;2023-01-25T19:19:13;101192.34;;;-1.59;73.97
60427;BME280;46274;47.168;27.604;2023-01-25T19:25:16;101281.31;;;-1.28;74.83
60427;BME280;46274;47.168;27.604;2023-01-25T19:31:25;101174.19;;;-1.49;73.60
60427;BME280;46274;47.168;27.604;2023-01-25T19:37:28;101255.94;;;-1.36;74.49
60427;BME280;46274;47.168;27.604;2023-01-25T19:43:33;101284.75;;;-1.07;75.21
60427;BME280;46274;47.168;27.604;2023-01-25T19:49:38;101264.41;;;-1.27;76.02
60427;BME280;46274;47.168;27.604;2023-01-25T19:55:42;101279.56;;;-1.29;76.41
60427;BME280;46274;47.168;27.604;2023-01-25T20:01:46;101273.69;;;-1.17;75.71
60427;BME280;46274;47.168;27.604;2023-01-25T20:07:49;101269.81;;;-1.10;75.63
60427;BME280;46274;47.168;27.604;2023-01-25T20:13:54;101166.38;;;-1.92;76.46
60427;BME280;46274;47.168;27.604;2023-01-25T20:20:01;101265.50;;;-1.32;75.86
60427;BME280;46274;47.168;27.604;2023-01-25T20:26:15;101257.88;;;-1.39;76.48
60427;BME280;46274;47.168;27.604;2023-01-25T20:32:19;101256.78;;;-1.35;75.14
60427;BME280;46274;47.168;27.604;2023-01-25T20:38:35;101240.56;;;-1.29;75.06
60427;BME280;46274;47.168;27.604;2023-01-25T20:44:37;101250.78;;;-1.39;74.59
60427;BME280;46274;47.168;27.604;2023-01-25T20:50:39;101251.78;;;-1.41;74.16
60427;BME280;46274;47.168;27.604;2023-01-25T20:56:42;101083.41;;;-2.35;74.03
60427;BME280;46274;47.168;27.604;2023-01-25T21:02:49;101244.44;;;-1.36;75.02
60427;BME280;46274;47.168;27.604;2023-01-25T21:08:56;101237.47;;;-1.39;74.14
60427;BME280;46274;47.168;27.604;2023-01-25T21:15:01;101233.44;;;-1.47;74.79
60427;BME280;46274;47.168;27.604;2023-01-25T21:21:12;101233.66;;;-1.52;75.39
60427;BME280;46274;47.168;27.604;2023-01-25T21:27:18;101218.13;;;-1.42;75.20
60427;BME280;46274;47.168;27.604;2023-01-25T21:33:23;100940.97;;;-3.13;75.17
60427;BME280;46274;47.168;27.604;2023-01-25T21:39:27;101218.78;;;-1.56;74.81
60427;BME280;46274;47.168;27.604;2023-01-25T21:45:30;101212.09;;;-1.46;74.87
60427;BME280;46274;47.168;27.604;2023-01-25T21:51:53;101217.47;;;-1.47;75.05
60427;BME280;46274;47.168;27.604;2023-01-25T21:58:00;101201.88;;;-1.55;75.16
60427;BME280;46274;47.168;27.604;2023-01-25T22:04:05;100881.88;;;-3.36;75.01
60427;BME280;46274;47.168;27.604;2023-01-25T22:10:08;101162.97;;;-1.75;74.94
60427;BME280;46274;47.168;27.604;2023-01-25T22:16:13;101164.19;;;-1.63;75.59
60427;BME280;46274;47.168;27.604;2023-01-25T22:22:23;101175.69;;;-1.44;74.47
60427;BME280;46274;47.168;27.604;2023-01-25T22:28:49;101169.09;;;-1.54;75.36
60427;BME280;46274;47.168;27.604;2023-01-25T22:34:58;101168.13;;;-1.53;75.62
60427;BME280;46274;47.168;27.604;2023-01-25T22:41:15;101157.50;;;-1.53;75.13
60427;BME280;46274;47.168;27.604;2023-01-25T22:47:18;101154.13;;;-1.38;74.64
60427;BME280;46274;47.168;27.604;2023-01-25T22:53:40;101134.53;;;-1.54;75.40
60427;BME280;46274;47.168;27.604;2023-01-25T22:59:48;101139.63;;;-1.49;75.12
60427;BME280;46274;47.168;27.604;2023-01-25T23:06:03;101102.78;;;-1.76;75.61
60427;BME280;46274;47.168;27.604;2023-01-25T23:12:08;101120.03;;;-1.47;75.71
60427;BME280;46274;47.168;27.604;2023-01-25T23:18:14;101118.00;;;-1.42;75.30
60427;BME280;46274;47.168;27.604;2023-01-25T23:24:35;100896.97;;;-2.78;75.49
60427;BME280;46274;47.168;27.604;2023-01-25T23:30:46;101106.72;;;-1.47;75.41
60427;BME280;46274;47.168;27.604;2023-01-25T23:36:50;101110.47;;;-1.51;75.44
60427;BME280;46274;47.168;27.604;2023-01-25T23:42:56;100966.41;;;-1.94;74.11
60427;BME280;46274;47.168;27.604;2023-01-25T23:49:00;101098.44;;;-1.41;75.13
60427;BME280;46274;47.168;27.604;2023-01-25T23:55:09;100968.97;;;-2.29;76.07
